Terminal Aerodrome Forecast
Issued by NWS

Home | Current Version | Previous Version | Text Only | Print | Product List | Glossary On
Versions: 1 2 3 4 5 6 7 8 9 10 11 12 13 14 15 16 17 18 19 20 21 22 23 24 25
000
FTUS41 KALY 041734
TAFPSF
TAF
KPSF 041734Z 0418/0518 06008G14KT P6SM BKN035
      TEMPO 0418/0419 BKN030
     FM042200 08006KT P6SM SCT035
     FM050200 00000KT P6SM FEW040
     FM050700 00000KT 2SM BR SCT001
     FM050900 00000KT 1/2SM FG VV001
     FM051300 VRB04KT P6SM SKC=

USA.gov is the U.S. government's official web portal to all federal, state and local government web resources and services.